TimeEST,TemperatureF,Dew PointF,Humidity,Sea Level PressureIn,VisibilityMPH,Wind Direction,Wind SpeedMPH,Gust SpeedMPH,PrecipitationIn,Events,Conditions,WindDirDegrees,DateUTC
12:15 AM,37.4,37.4,100,29.95,3.0,Calm,Calm,-,N/A,Rain,Rain,0,2012-12-29 05:15:00
12:35 AM,37.4,37.4,100,29.91,3.0,East,4.6,-,N/A,Rain,Rain,80,2012-12-29 05:35:00
12:55 AM,37.4,37.4,100,29.91,2.5,ENE,4.6,-,N/A,Rain,Rain,70,2012-12-29 05:55:00
1:15 AM,37.4,37.4,100,29.89,3.0,Calm,Calm,-,N/A,Rain,Light Rain,0,2012-12-29 06:15:00
1:35 AM,37.4,35.6,93,29.86,2.5,East,4.6,-,N/A,Rain,Rain,90,2012-12-29 06:35:00
1:55 AM,37.4,35.6,93,29.87,2.0,Calm,Calm,-,N/A,Rain,Rain,0,2012-12-29 06:55:00
2:15 AM,37.4,35.6,93,29.86,1.5,Calm,Calm,-,N/A,Rain,Light Rain,0,2012-12-29 07:15:00
2:35 AM,37.4,35.6,93,29.78,2.0,East,6.9,-,N/A,Rain,Rain,90,2012-12-29 07:35:00
2:55 AM,37.4,35.6,93,29.83,4.0,Calm,Calm,-,N/A,Rain,Light Rain,0,2012-12-29 07:55:00
3:15 AM,37.4,35.6,93,29.80,3.0,Calm,Calm,-,N/A,,Overcast,0,2012-12-29 08:15:00
3:35 AM,37.4,35.6,93,29.80,4.0,Calm,Calm,-,N/A,,Overcast,0,2012-12-29 08:35:00
3:55 AM,37.4,35.6,93,29.81,3.0,NNW,3.5,-,N/A,,Overcast,330,2012-12-29 08:55:00
4:15 AM,37.4,35.6,93,29.80,2.0,NNE,3.5,-,N/A,,Overcast,30,2012-12-29 09:15:00
4:35 AM,37.4,35.6,93,29.80,1.8,Calm,Calm,-,N/A,,Light Drizzle,0,2012-12-29 09:35:00
4:55 AM,37.4,35.6,93,29.79,2.0,Calm,Calm,-,N/A,,Light Drizzle,0,2012-12-29 09:55:00
5:15 AM,37.4,35.6,93,29.79,2.0,Calm,Calm,-,N/A,,Overcast,0,2012-12-29 10:15:00
5:35 AM,37.4,35.6,93,29.80,2.5,Calm,Calm,-,N/A,,Overcast,0,2012-12-29 10:35:00
5:55 AM,37.4,35.6,93,29.81,1.8,NW,3.5,-,N/A,,Overcast,310,2012-12-29 10:55:00
6:15 AM,37.4,35.6,93,29.81,2.5,Calm,Calm,-,N/A,,Overcast,0,2012-12-29 11:15:00
6:35 AM,37.4,35.6,93,29.82,2.5,Calm,Calm,-,N/A,,Overcast,0,2012-12-29 11:35:00
6:55 AM,37.4,35.6,93,29.82,2.0,Calm,Calm,-,N/A,,Overcast,0,2012-12-29 11:55:00
7:15 AM,37.4,35.6,93,29.83,2.5,Calm,Calm,-,N/A,,Overcast,0,2012-12-29 12:15:00
7:35 AM,37.4,37.4,100,29.83,3.0,NW,4.6,-,N/A,,Overcast,310,2012-12-29 12:35:00
7:55 AM,37.4,37.4,100,29.83,3.0,Calm,Calm,-,N/A,,Overcast,0,2012-12-29 12:55:00
8:15 AM,37.4,37.4,100,29.85,1.8,West,4.6,-,N/A,,Overcast,280,2012-12-29 13:15:00
8:35 AM,37.4,37.4,100,29.85,2.5,West,3.5,-,N/A,,Overcast,270,2012-12-29 13:35:00
8:55 AM,39.2,37.4,93,29.86,2.5,West,4.6,-,N/A,,Overcast,260,2012-12-29 13:55:00
9:15 AM,39.2,37.4,93,29.86,4.0,West,8.1,-,N/A,,Overcast,260,2012-12-29 14:15:00
9:35 AM,41.0,37.4,87,29.86,4.0,West,6.9,-,N/A,,Overcast,260,2012-12-29 14:35:00
9:55 AM,41.0,39.2,93,29.87,7.0,West,5.8,-,N/A,,Overcast,270,2012-12-29 14:55:00
10:15 AM,41.0,39.2,93,29.89,10.0,West,6.9,-,N/A,,Overcast,270,2012-12-29 15:15:00
10:35 AM,42.8,39.2,87,29.89,10.0,West,6.9,-,N/A,,Overcast,270,2012-12-29 15:35:00
10:55 AM,42.8,37.4,81,29.89,10.0,West,10.4,16.1,N/A,,Overcast,270,2012-12-29 15:55:00
11:15 AM,42.8,35.6,76,29.89,10.0,West,11.5,18.4,N/A,,Overcast,280,2012-12-29 16:15:00
11:35 AM,42.8,33.8,70,29.89,10.0,West,9.2,20.7,N/A,,Overcast,280,2012-12-29 16:35:00
11:55 AM,42.8,32.0,66,29.88,10.0,West,12.7,20.7,N/A,,Overcast,280,2012-12-29 16:55:00
12:15 PM,44.6,32.0,61,29.88,10.0,WNW,15.0,26.5,N/A,,Overcast,290,2012-12-29 17:15:00
12:35 PM,42.8,28.4,57,29.88,10.0,West,18.4,25.3,N/A,,Overcast,280,2012-12-29 17:35:00
12:55 PM,42.8,28.4,57,29.88,10.0,West,17.3,26.5,N/A,,Overcast,270,2012-12-29 17:55:00
1:15 PM,42.8,28.4,57,29.89,10.0,West,17.3,21.9,N/A,,Overcast,270,2012-12-29 18:15:00
1:35 PM,42.8,30.2,61,29.88,10.0,West,13.8,23.0,N/A,,Overcast,270,2012-12-29 18:35:00
1:55 PM,42.8,28.4,57,29.89,10.0,West,15.0,24.2,N/A,,Overcast,270,2012-12-29 18:55:00
2:15 PM,42.8,26.6,53,29.89,10.0,West,13.8,25.3,N/A,,Overcast,280,2012-12-29 19:15:00
2:35 PM,42.8,28.4,57,29.90,10.0,West,19.6,27.6,N/A,,Overcast,270,2012-12-29 19:35:00
2:55 PM,42.8,26.6,53,29.90,10.0,WNW,21.9,27.6,N/A,,Overcast,300,2012-12-29 19:55:00
3:35 PM,41.0,26.6,57,29.93,10.0,WNW,13.8,-,N/A,,Overcast,290,2012-12-29 20:35:00
3:55 PM,41.0,26.6,57,29.94,10.0,WNW,16.1,25.3,N/A,,Overcast,290,2012-12-29 20:55:00
4:15 PM,41.0,26.6,57,29.95,10.0,WNW,18.4,21.9,N/A,,Overcast,300,2012-12-29 21:15:00
4:35 PM,41.0,24.8,53,29.96,10.0,WNW,18.4,21.9,N/A,,Overcast,300,2012-12-29 21:35:00
4:55 PM,41.0,23.0,49,29.97,10.0,WNW,21.9,29.9,N/A,,Overcast,300,2012-12-29 21:55:00
5:15 PM,39.2,23.0,52,29.98,10.0,WNW,13.8,21.9,N/A,,Overcast,300,2012-12-29 22:15:00
5:35 PM,39.2,23.0,52,29.98,10.0,WNW,16.1,24.2,N/A,,Overcast,290,2012-12-29 22:35:00
5:55 PM,37.4,24.8,60,30.00,10.0,WNW,15.0,20.7,N/A,,Overcast,290,2012-12-29 22:55:00
6:15 PM,37.4,24.8,60,30.00,10.0,WNW,15.0,19.6,N/A,,Overcast,290,2012-12-29 23:15:00
6:35 PM,37.4,24.8,60,30.01,10.0,WNW,18.4,25.3,N/A,,Overcast,290,2012-12-29 23:35:00
6:55 PM,37.4,23.0,56,30.02,10.0,NW,17.3,24.2,N/A,,Overcast,310,2012-12-29 23:55:00
7:15 PM,37.4,23.0,56,30.04,10.0,WNW,16.1,21.9,N/A,,Overcast,290,2012-12-30 00:15:00
7:35 PM,35.6,23.0,60,30.05,10.0,WNW,9.2,20.7,N/A,,Overcast,290,2012-12-30 00:35:00
8:15 PM,35.6,24.8,65,30.06,10.0,WNW,11.5,17.3,N/A,,Overcast,300,2012-12-30 01:15:00
8:35 PM,35.6,23.0,60,30.07,10.0,NW,12.7,19.6,N/A,,Overcast,310,2012-12-30 01:35:00
8:55 PM,35.6,21.2,56,30.08,10.0,NW,16.1,19.6,N/A,,Scattered Clouds,310,2012-12-30 01:55:00
9:15 PM,35.6,17.6,48,30.09,10.0,NW,12.7,24.2,N/A,,Clear,320,2012-12-30 02:15:00
9:35 PM,35.6,17.6,48,30.10,10.0,NW,15.0,20.7,N/A,,Clear,310,2012-12-30 02:35:00
9:55 PM,35.6,14.0,41,30.11,10.0,NW,17.3,23.0,N/A,,Mostly Cloudy,310,2012-12-30 02:55:00
10:15 PM,35.6,14.0,41,30.12,10.0,NW,16.1,24.2,N/A,,Mostly Cloudy,310,2012-12-30 03:15:00
10:35 PM,35.6,14.0,41,30.13,10.0,NW,15.0,24.2,N/A,,Scattered Clouds,310,2012-12-30 03:35:00
10:55 PM,35.6,14.0,41,30.14,10.0,NW,13.8,17.3,N/A,,Clear,320,2012-12-30 03:55:00
11:15 PM,35.6,12.2,38,30.14,10.0,NW,11.5,28.8,N/A,,Clear,320,2012-12-30 04:15:00
11:35 PM,35.6,14.0,41,30.15,10.0,NW,18.4,24.2,N/A,,Clear,310,2012-12-30 04:35:00
11:55 PM,35.6,12.2,38,30.16,10.0,WNW,15.0,21.9,N/A,,Scattered Clouds,300,2012-12-30 04:55:00